createdAt,value
2022-12-20T00:01:44.945Z,-5.61
2022-12-20T00:04:12.777Z,-5.64
2022-12-20T00:06:39.806Z,-5.69
2022-12-20T00:09:07.342Z,-5.73
2022-12-20T00:11:34.415Z,-5.72
2022-12-20T00:14:01.064Z,-5.72
2022-12-20T00:16:28.557Z,-5.72
2022-12-20T00:18:57.504Z,-5.70
2022-12-20T00:21:24.248Z,-5.66
2022-12-20T00:23:54.181Z,-5.64
2022-12-20T00:26:22.932Z,-5.61
2022-12-20T00:28:49.595Z,-5.59
2022-12-20T00:31:17.484Z,-5.58
2022-12-20T00:33:48.721Z,-5.55
2022-12-20T00:36:15.571Z,-5.53
2022-12-20T00:38:44.604Z,-5.51
2022-12-20T00:41:13.072Z,-5.50
2022-12-20T00:43:40.175Z,-5.49
2022-12-20T00:46:07.633Z,-5.50
2022-12-20T00:48:34.429Z,-5.48
2022-12-20T00:51:01.574Z,-5.46
2022-12-20T00:53:28.424Z,-5.45
2022-12-20T00:55:55.043Z,-5.44
2022-12-20T00:58:21.933Z,-5.42
2022-12-20T01:00:54.050Z,-5.41
2022-12-20T01:03:23.438Z,-5.40
2022-12-20T01:06:00.560Z,-5.41
2022-12-20T01:08:28.224Z,-5.44
2022-12-20T01:11:06.239Z,-5.47
2022-12-20T01:13:33.459Z,-5.48
2022-12-20T01:16:07.946Z,-5.49
2022-12-20T01:18:34.873Z,-5.49
2022-12-20T01:21:05.761Z,-5.49
2022-12-20T01:23:32.478Z,-5.50
2022-12-20T01:26:02.781Z,-5.49
2022-12-20T01:28:29.553Z,-5.49
2022-12-20T01:30:56.198Z,-5.51
2022-12-20T01:33:23.053Z,-5.51
2022-12-20T01:36:08.842Z,-5.53
2022-12-20T01:38:35.800Z,-5.55
2022-12-20T01:41:02.799Z,-5.57
2022-12-20T01:44:25.145Z,-5.57
2022-12-20T01:46:52.833Z,-5.59
2022-12-20T01:49:20.783Z,-5.61
2022-12-20T01:51:49.772Z,-5.61
2022-12-20T01:54:28.219Z,-5.63
2022-12-20T01:56:57.429Z,-5.65
2022-12-20T01:59:24.438Z,-5.66
2022-12-20T02:01:51.241Z,-5.67
2022-12-20T02:04:17.961Z,-5.68
2022-12-20T02:06:44.677Z,-5.69
2022-12-20T02:09:12.260Z,-5.67
2022-12-20T02:11:41.455Z,-5.64
2022-12-20T02:14:26.923Z,-5.63
2022-12-20T02:17:01.648Z,-5.63
2022-12-20T02:19:47.275Z,-5.61
2022-12-20T02:22:30.899Z,-5.58
2022-12-20T02:25:15.013Z,-5.54
2022-12-20T02:27:54.739Z,-5.52
2022-12-20T02:30:22.882Z,-5.51
2022-12-20T02:33:07.325Z,-5.49
2022-12-20T02:35:35.491Z,-5.48
2022-12-20T02:38:24.558Z,-5.48
2022-12-20T02:40:52.394Z,-5.47
2022-12-20T02:43:38.176Z,-5.46
2022-12-20T02:46:05.059Z,-5.44
2022-12-20T02:48:32.710Z,-5.44
2022-12-20T02:50:59.501Z,-5.43
2022-12-20T02:53:26.243Z,-5.42
2022-12-20T02:55:57.248Z,-5.39
2022-12-20T02:58:32.383Z,-5.36
2022-12-20T03:01:04.594Z,-5.32
2022-12-20T03:03:32.982Z,-5.27
2022-12-20T03:05:59.700Z,-5.24
2022-12-20T03:08:26.481Z,-5.20
2022-12-20T03:10:53.892Z,-5.15
2022-12-20T03:13:21.742Z,-5.10
2022-12-20T03:15:56.049Z,-5.06
2022-12-20T03:18:22.767Z,-5.02
2022-12-20T03:20:49.573Z,-5.01
2022-12-20T03:23:16.558Z,-4.99
2022-12-20T03:25:43.302Z,-4.98
2022-12-20T03:28:11.411Z,-4.96
2022-12-20T03:30:38.214Z,-4.95
2022-12-20T03:33:04.940Z,-4.94
2022-12-20T03:35:31.656Z,-4.91
2022-12-20T03:37:58.509Z,-4.91
2022-12-20T03:40:25.446Z,-4.90
2022-12-20T03:42:52.498Z,-4.88
2022-12-20T03:45:19.189Z,-4.86
2022-12-20T03:47:46.237Z,-4.85
2022-12-20T03:50:12.945Z,-4.84
2022-12-20T03:52:40.314Z,-4.83
2022-12-20T03:55:07.877Z,-4.81
2022-12-20T03:57:40.140Z,-4.78
2022-12-20T04:00:16.435Z,-4.74
2022-12-20T04:02:45.569Z,-4.71
2022-12-20T04:05:12.573Z,-4.66
2022-12-20T04:07:39.310Z,-4.60
2022-12-20T04:10:06.640Z,-4.55
2022-12-20T04:12:33.325Z,-4.51
2022-12-20T04:15:00.388Z,-4.45
2022-12-20T04:17:27.980Z,-4.41
2022-12-20T04:19:55.150Z,-4.35
2022-12-20T04:22:22.245Z,-4.31
2022-12-20T04:24:54.505Z,-4.26
2022-12-20T04:27:26.667Z,-4.22
2022-12-20T04:29:53.845Z,-4.18
2022-12-20T04:32:20.593Z,-4.15
2022-12-20T04:34:47.325Z,-4.12
2022-12-20T04:37:13.971Z,-4.08
2022-12-20T04:39:50.844Z,-4.06
2022-12-20T04:42:26.538Z,-4.04
2022-12-20T04:44:53.641Z,-4.00
2022-12-20T04:47:25.891Z,-3.97
2022-12-20T04:49:53.068Z,-3.93
2022-12-20T04:52:43.494Z,-3.88
2022-12-20T04:55:14.164Z,-3.82
2022-12-20T04:57:40.966Z,-3.79
2022-12-20T05:00:08.358Z,-3.73
2022-12-20T05:02:37.387Z,-3.69
2022-12-20T05:05:09.028Z,-3.65
2022-12-20T05:07:40.822Z,-3.60
2022-12-20T06:23:58.084Z,-2.98
2022-12-20T06:26:25.115Z,-2.85
2022-12-20T06:28:54.742Z,-2.82
2022-12-20T06:31:25.410Z,-2.81
2022-12-20T06:33:53.976Z,-2.80
2022-12-20T06:36:22.399Z,-2.78
2022-12-20T06:38:49.714Z,-2.77
2022-12-20T06:41:16.419Z,-2.75
2022-12-20T06:43:43.173Z,-2.75
2022-12-20T06:46:10.541Z,-2.72
2022-12-20T06:48:37.238Z,-2.71
2022-12-20T06:51:05.372Z,-2.70
2022-12-20T06:53:31.956Z,-2.69
2022-12-20T06:55:59.178Z,-2.69
2022-12-20T06:58:25.825Z,-2.68
2022-12-20T07:00:52.527Z,-2.67
2022-12-20T07:03:19.329Z,-2.64
2022-12-20T07:05:50.964Z,-2.61
2022-12-20T07:08:17.707Z,-2.59
2022-12-20T07:10:44.489Z,-2.56
2022-12-20T07:13:11.164Z,-2.53
2022-12-20T07:15:37.874Z,-2.50
2022-12-20T07:18:04.848Z,-2.46
2022-12-20T07:20:31.539Z,-2.43
2022-12-20T07:23:00.140Z,-2.41
2022-12-20T07:25:26.786Z,-2.38
2022-12-20T07:27:53.453Z,-2.35
2022-12-20T07:30:20.405Z,-2.35
2022-12-20T07:32:47.489Z,-2.33
2022-12-20T07:35:14.360Z,-2.32
2022-12-20T07:37:41.054Z,-2.30
2022-12-20T07:40:09.045Z,-2.28
2022-12-20T07:42:39.167Z,-2.27
2022-12-20T07:45:08.534Z,-2.26
2022-12-20T07:47:35.883Z,-2.24
2022-12-20T07:50:03.190Z,-2.20
2022-12-20T07:52:29.962Z,-2.17
2022-12-20T07:55:01.905Z,-2.17
2022-12-20T07:57:34.947Z,-2.12
2022-12-20T08:00:01.816Z,-2.09
2022-12-20T08:03:02.684Z,-2.06
2022-12-20T08:05:29.465Z,-2.03
2022-12-20T08:07:59.415Z,-2.01
2022-12-20T08:10:26.477Z,-1.99
2022-12-20T08:12:53.114Z,-1.97
2022-12-20T08:15:21.995Z,-1.97
2022-12-20T08:17:49.625Z,-1.95
2022-12-20T08:20:16.574Z,-1.94
2022-12-20T08:22:43.170Z,-1.92
2022-12-20T16:24:55.168Z,-1.02
2022-12-20T16:27:21.841Z,-0.92
2022-12-20T16:29:48.520Z,-0.92
2022-12-20T16:32:19.072Z,-0.94
2022-12-20T16:34:45.914Z,-0.96
2022-12-20T16:37:12.657Z,-0.97
2022-12-20T16:39:39.768Z,-0.99
2022-12-20T16:42:13.116Z,-1.00
2022-12-20T16:44:42.738Z,-1.06
2022-12-20T16:47:10.253Z,-1.01
2022-12-20T16:49:36.991Z,-1.03
2022-12-20T16:52:04.520Z,-1.05
2022-12-20T16:54:31.975Z,-1.06
2022-12-20T16:56:58.672Z,-1.07
2022-12-20T16:59:25.653Z,-1.07
2022-12-20T17:01:53.474Z,-1.06
2022-12-20T17:04:21.198Z,-1.05
2022-12-20T17:06:48.166Z,-1.03
2022-12-20T17:09:16.305Z,-1.02
2022-12-20T17:32:47.812Z,-0.69
2022-12-20T17:35:22.378Z,-0.59
2022-12-20T17:37:50.726Z,-0.56
2022-12-20T17:40:17.624Z,-0.55
2022-12-20T17:42:44.257Z,-0.54
2022-12-20T17:45:31.513Z,-0.54
2022-12-20T17:47:58.418Z,-0.55
2022-12-20T17:50:25.283Z,-0.54
2022-12-20T17:52:52.487Z,-0.55
2022-12-20T17:55:25.101Z,-0.55
2022-12-20T17:57:52.437Z,-0.55
2022-12-20T18:00:24.744Z,-0.55
2022-12-20T18:02:52.084Z,-0.56
2022-12-20T18:05:18.959Z,-0.56
2022-12-20T18:07:50.008Z,-0.55
2022-12-20T18:10:16.800Z,-0.55
2022-12-20T18:12:43.528Z,-0.54
2022-12-20T18:15:10.695Z,-0.52
2022-12-20T18:17:38.239Z,-0.51
2022-12-20T18:20:07.282Z,-0.49
2022-12-20T18:22:34.673Z,-0.47
2022-12-20T18:25:03.736Z,-0.45
2022-12-20T18:27:31.389Z,-0.44
2022-12-20T18:29:58.164Z,-0.42
2022-12-20T18:32:25.141Z,-0.40
2022-12-20T18:34:51.962Z,-0.39
2022-12-20T18:37:18.661Z,-0.38
2022-12-20T18:39:45.391Z,-0.37
2022-12-20T18:42:12.078Z,-0.37
2022-12-20T18:44:38.919Z,-0.36
2022-12-20T18:47:05.714Z,-0.35
2022-12-20T18:49:32.469Z,-0.36
2022-12-20T18:51:59.821Z,-0.36
2022-12-20T18:54:26.687Z,-0.35
2022-12-20T18:56:53.272Z,-0.36
2022-12-20T18:59:21.195Z,-0.36
2022-12-20T19:01:48.076Z,-0.36
2022-12-20T19:04:20.812Z,-0.35
2022-12-20T19:06:50.835Z,-0.33
2022-12-20T19:09:17.506Z,-0.32
2022-12-20T19:11:44.227Z,-0.34
2022-12-20T19:14:11.222Z,-0.29
2022-12-20T19:16:39.629Z,-0.27
2022-12-20T19:19:08.625Z,-0.26
2022-12-20T19:21:36.175Z,-0.25
2022-12-20T19:24:05.647Z,-0.23
2022-12-20T19:26:32.995Z,-0.24
2022-12-20T19:29:00.141Z,-0.23
2022-12-20T19:31:28.903Z,-0.23
2022-12-20T19:33:57.083Z,-0.23
2022-12-20T19:36:38.168Z,-0.23
2022-12-20T19:39:12.426Z,-0.24
2022-12-20T19:41:40.089Z,-0.24
2022-12-20T19:44:07.335Z,-0.25
2022-12-20T19:46:34.200Z,-0.26
2022-12-20T19:49:00.908Z,-0.26
2022-12-20T19:51:27.936Z,-0.26
2022-12-20T19:53:54.914Z,-0.25
2022-12-20T19:56:23.356Z,-0.25
2022-12-20T19:58:50.157Z,-0.25
2022-12-20T20:01:17.906Z,-0.24
2022-12-20T20:03:45.085Z,-0.22
2022-12-20T20:06:12.014Z,-0.20
2022-12-20T20:08:38.620Z,-0.20
2022-12-20T20:11:09.775Z,-0.18
2022-12-20T20:13:37.409Z,-0.17
2022-12-20T20:16:04.694Z,-0.16
2022-12-20T20:18:33.728Z,-0.16
2022-12-20T20:21:00.439Z,-0.14
2022-12-20T20:23:27.233Z,-0.14
2022-12-20T20:25:56.857Z,-0.14
2022-12-20T20:28:31.310Z,-0.15
2022-12-20T20:30:59.200Z,-0.16
2022-12-20T20:33:26.105Z,-0.17
2022-12-20T20:35:54.475Z,-0.17
2022-12-20T20:38:21.268Z,-0.16
2022-12-20T20:40:47.942Z,-0.16
2022-12-20T20:43:14.697Z,-0.13
2022-12-20T20:45:41.376Z,-0.10
2022-12-20T20:48:08.047Z,-0.08
2022-12-20T20:50:34.722Z,-0.04
2022-12-20T20:53:01.437Z,-0.02
2022-12-20T20:55:28.096Z,0.02
2022-12-20T20:57:54.959Z,0.04
2022-12-20T21:00:21.602Z,0.06
2022-12-20T21:02:48.523Z,0.08
2022-12-20T21:08:02.154Z,0.09
2022-12-20T21:10:28.992Z,0.10
2022-12-20T21:12:55.803Z,0.12
2022-12-20T21:15:24.313Z,0.13
2022-12-20T21:17:51.396Z,0.12
2022-12-20T21:20:23.845Z,0.13
2022-12-20T21:22:52.550Z,0.11
2022-12-20T21:25:19.275Z,0.10
2022-12-20T21:27:46.018Z,0.10
2022-12-20T21:30:13.037Z,0.11
2022-12-20T21:32:39.805Z,0.13
2022-12-20T21:35:06.800Z,0.14
2022-12-20T21:37:33.495Z,0.17
2022-12-20T21:40:00.175Z,0.18
2022-12-20T21:42:26.875Z,0.20
2022-12-20T21:44:53.568Z,0.21
2022-12-20T21:47:21.341Z,0.22
2022-12-20T21:49:48.006Z,0.22
2022-12-20T21:52:14.678Z,0.23
2022-12-20T21:54:42.916Z,0.25
2022-12-20T21:57:10.539Z,0.26
2022-12-20T21:59:37.797Z,0.27
2022-12-20T22:02:05.117Z,0.28
2022-12-20T22:04:32.943Z,0.28
2022-12-20T22:06:59.654Z,0.28
2022-12-20T22:09:26.497Z,0.29
2022-12-20T22:11:53.127Z,0.29
2022-12-20T22:14:19.890Z,0.31
2022-12-20T22:16:46.800Z,0.33
2022-12-20T22:19:14.716Z,0.35
2022-12-20T22:21:41.440Z,0.37
2022-12-20T22:24:08.886Z,0.39
2022-12-20T22:26:36.938Z,0.41
2022-12-20T22:29:05.143Z,0.43
2022-12-20T22:31:32.117Z,0.45
2022-12-20T22:33:59.299Z,0.46
2022-12-20T22:36:26.350Z,0.48
2022-12-20T22:38:54.148Z,0.48
2022-12-20T22:41:28.806Z,0.49
2022-12-20T22:43:55.860Z,0.50
2022-12-20T22:46:22.486Z,0.49
2022-12-20T22:48:49.258Z,0.48
2022-12-20T22:51:16.864Z,0.47
2022-12-20T22:53:43.715Z,0.48
2022-12-20T22:56:10.434Z,0.47
2022-12-20T22:58:37.376Z,0.45
2022-12-20T23:01:05.939Z,0.44
2022-12-20T23:03:32.829Z,0.43
2022-12-20T23:06:00.831Z,0.42
2022-12-20T23:08:29.850Z,0.43
2022-12-20T23:11:15.380Z,0.44
2022-12-20T23:14:00.730Z,0.46
2022-12-20T23:16:27.866Z,0.47
2022-12-20T23:18:59.013Z,0.49
2022-12-20T23:21:44.210Z,0.50
2022-12-20T23:24:11.166Z,0.51
2022-12-20T23:26:38.586Z,0.52
2022-12-20T23:29:05.950Z,0.54
2022-12-20T23:31:32.940Z,0.55
2022-12-20T23:33:59.914Z,0.55
2022-12-20T23:36:26.501Z,0.55
2022-12-20T23:38:53.192Z,0.56
2022-12-20T23:41:19.882Z,0.55
2022-12-20T23:43:46.633Z,0.49
2022-12-20T23:46:14.153Z,0.54
2022-12-20T23:48:41.059Z,0.54
2022-12-20T23:51:08.194Z,0.53
2022-12-20T23:53:34.932Z,0.52
2022-12-20T23:56:09.966Z,0.50
2022-12-20T23:58:36.782Z,0.51
